Seattle, WA (98115)

3:48 PM PDT on August 31, 2015 (GMT -0700)
APRSWXNET | | Change Station
CLOSE
Current Station
Personal Weather Station
Location: Seattle, WA
Elevation: 301 ft
Nearby Weather Stations

Elev 301 ft 47.69 °N, 122.28 °W | Updated 22 minutes ago

Overcast
Overcast
62 °F
Feels Like 62 °F
N
1
Wind Variable Wind from SSE
Gusts 13.0 mph

Today
High -- | Low -- °F
--% Chance of Precip.
Yesterday
High -- | Low -- °F
Precip. -- in
6:26 AM 7:51 PM
Waning Gibbous, 93% visible
Pressure 29.95 in
Visibility 10.0 miles
Clouds Scattered Clouds 2900 ft
Mostly Cloudy 8000 ft
Overcast 12000 ft
Dew Point 57 °F
Humidity 83%
Rainfall in
Snow Depth Not available.
UV 2 out of 12
Pollen .30 out of 12
Air Quality Not available.
Flu Activity Not available.
METAR KBFI 312153Z COR 17009G16KT 10SM SCT029 BKN080 OVC120 20/13 A2995
Pressure 29.95 in
Visibility 10.0 miles
Clouds Scattered Clouds 2900 ft
Mostly Cloudy 8000 ft
Overcast 12000 ft
Dew Point 57 °F
Humidity 83%
Rainfall in
Snow Depth Not available.
UV 2 out of 12
Pollen .30 out of 12
Air Quality Not available.
Flu Activity Not available.
METAR KBFI 312153Z COR 17009G16KT 10SM SCT029 BKN080 OVC120 20/13 A2995

10-Day Weather Forecast

×

Almanac

Astronomy

Aug. 31, 2015 Rise Set
Actual Time
Civil Twilight
Nautical Twilight
Astronomical Twilight
Moon
Length of Visible Light
Length of Day
Tomorrow will be .
, % of the Moon is Illuminated

Today's Extremes

State Highs State Lows

Community

WunderPhotos

Upload Photos

1,851,390 photos uploaded!

WunderBlogs® & News

Nearby

Air Quality

  Air Quality AQ Index Pollutant
Not available.

Snow Depth

Station Depth Elevation

Earthquake Activity

City Distance Mag. Time & Date
Minimum magnitude displayed is 2.5.

Coastal Water Temperatures

Place Temperature

Stations

Nearby Weather Stations

Station Location Temp. Windchill Dew Point Humidity Wind Precip. Elev Updated Type